createdAt,value
2019-01-20T00:00:01.772Z,1.30
2019-01-20T00:02:29.089Z,1.30
2019-01-20T00:04:56.288Z,1.20
2019-01-20T00:07:23.481Z,1.10
2019-01-20T00:09:50.789Z,1.20
2019-01-20T00:12:18.025Z,1.00
2019-01-20T00:14:45.191Z,1.40
2019-01-20T00:17:12.445Z,1.20
2019-01-20T00:19:39.551Z,1.00
2019-01-20T00:22:06.798Z,1.00
2019-01-20T00:24:33.954Z,1.03
2019-01-20T00:27:01.123Z,1.10
2019-01-20T00:29:28.322Z,1.30
2019-01-20T00:31:55.485Z,1.23
2019-01-20T00:34:22.738Z,1.40
2019-01-20T00:36:49.896Z,1.30
2019-01-20T00:39:17.117Z,1.13
2019-01-20T00:41:44.292Z,1.20
2019-01-20T00:44:11.507Z,1.30
2019-01-20T00:46:38.663Z,1.00
2019-01-20T00:49:05.897Z,1.30
2019-01-20T00:51:33.567Z,1.20
2019-01-20T00:54:00.981Z,1.30
2019-01-20T00:56:28.187Z,0.93
2019-01-20T00:58:55.491Z,1.10
2019-01-20T01:01:22.667Z,1.30
2019-01-20T01:03:49.880Z,1.10
2019-01-20T01:06:17.205Z,1.20
2019-01-20T01:08:44.389Z,1.17
2019-01-20T01:11:11.550Z,1.40
2019-01-20T01:13:38.799Z,1.30
2019-01-20T01:16:06.004Z,1.17
2019-01-20T01:18:33.206Z,1.20
2019-01-20T01:21:00.454Z,1.23
2019-01-20T01:23:27.639Z,1.20
2019-01-20T01:25:54.789Z,1.30
2019-01-20T01:28:21.996Z,1.10
2019-01-20T01:30:49.154Z,1.30
2019-01-20T01:33:16.336Z,1.27
2019-01-20T01:35:43.516Z,1.03
2019-01-20T01:38:10.712Z,1.30
2019-01-20T01:40:37.939Z,1.27
2019-01-20T01:43:05.150Z,1.30
2019-01-20T01:45:32.427Z,1.20
2019-01-20T01:47:59.643Z,1.37
2019-01-20T01:50:26.877Z,1.10
2019-01-20T01:52:54.039Z,1.20
2019-01-20T01:55:21.221Z,1.10
2019-01-20T01:57:48.413Z,1.27
2019-01-20T02:00:18.051Z,1.30
2019-01-20T02:02:45.254Z,1.10
2019-01-20T02:05:12.573Z,1.07
2019-01-20T02:07:39.732Z,1.40
2019-01-20T02:10:09.314Z,1.30
2019-01-20T02:12:36.521Z,1.20
2019-01-20T02:15:04.496Z,1.20
2019-01-20T02:17:31.720Z,1.33
2019-01-20T02:19:58.882Z,1.30
2019-01-20T02:22:26.089Z,1.30
2019-01-20T02:24:53.260Z,1.30
2019-01-20T02:27:20.456Z,1.30
2019-01-20T02:29:47.688Z,1.37
2019-01-20T02:32:14.874Z,1.10
2019-01-20T02:34:42.056Z,1.00
2019-01-20T02:37:09.263Z,1.30
2019-01-20T02:39:36.490Z,1.43
2019-01-20T02:42:03.647Z,1.30
2019-01-20T02:44:30.855Z,1.40
2019-01-20T02:46:58.060Z,1.20
2019-01-20T02:49:25.291Z,1.57
2019-01-20T02:51:52.601Z,1.77
2019-01-20T02:54:19.780Z,1.23
2019-01-20T02:56:46.963Z,1.30
2019-01-20T02:59:14.171Z,1.30
2019-01-20T03:01:41.700Z,1.30
2019-01-20T03:04:08.855Z,1.30
2019-01-20T03:06:36.055Z,1.00
2019-01-20T03:09:07.657Z,1.10
2019-01-20T03:11:34.924Z,1.23
2019-01-20T03:14:02.072Z,1.20
2019-01-20T03:16:29.270Z,1.27
2019-01-20T03:18:56.952Z,1.40
2019-01-20T03:21:24.093Z,1.20
2019-01-20T03:23:51.295Z,1.30
2019-01-20T03:26:18.507Z,1.30
2019-01-20T03:28:45.688Z,1.13
2019-01-20T03:31:12.880Z,1.13
2019-01-20T03:33:40.115Z,1.43
2019-01-20T03:36:07.275Z,1.40
2019-01-20T03:38:34.466Z,1.23
2019-01-20T03:41:01.700Z,1.30
2019-01-20T03:43:28.878Z,1.47
2019-01-20T03:45:56.106Z,1.60
2019-01-20T03:48:23.257Z,1.30
2019-01-20T03:50:50.494Z,1.60
2019-01-20T03:53:17.704Z,1.40
2019-01-20T03:55:44.866Z,1.30
2019-01-20T03:58:12.077Z,1.37
2019-01-20T04:00:39.381Z,1.23
2019-01-20T04:03:06.649Z,1.40
2019-01-20T04:05:33.846Z,1.20
2019-01-20T04:08:01.055Z,1.30
2019-01-20T04:10:28.277Z,1.27
2019-01-20T04:12:55.519Z,1.30
2019-01-20T04:15:22.658Z,1.20
2019-01-20T04:17:49.880Z,1.20
2019-01-20T04:20:17.079Z,1.50
2019-01-20T04:22:44.228Z,1.40
2019-01-20T04:25:12.144Z,1.33
2019-01-20T04:27:39.353Z,1.30
2019-01-20T04:30:08.072Z,1.50
2019-01-20T04:32:35.234Z,1.10
2019-01-20T04:35:02.492Z,1.23
2019-01-20T04:37:29.650Z,1.40
2019-01-20T04:39:56.873Z,1.20
2019-01-20T04:42:29.055Z,1.30
2019-01-20T04:44:53.179Z,1.27
2019-01-20T04:47:20.350Z,1.10
2019-01-20T04:49:47.539Z,1.20
2019-01-20T04:52:14.726Z,1.10
2019-01-20T04:54:41.897Z,1.20
2019-01-20T04:57:09.194Z,1.30
2019-01-20T04:59:36.412Z,1.30
2019-01-20T05:02:03.651Z,1.50
2019-01-20T05:04:30.844Z,1.30
2019-01-20T05:06:58.070Z,1.40
2019-01-20T05:09:25.224Z,1.40
2019-01-20T05:11:52.442Z,1.10
2019-01-20T05:14:19.622Z,1.17
2019-01-20T05:16:46.857Z,1.10
2019-01-20T05:19:14.060Z,1.30
2019-01-20T05:21:41.339Z,1.20
2019-01-20T05:24:08.526Z,1.40
2019-01-20T05:26:35.686Z,1.23
2019-01-20T05:29:02.850Z,1.30
2019-01-20T05:31:30.011Z,1.30
2019-01-20T05:33:57.341Z,1.47
2019-01-20T05:36:24.494Z,1.60
2019-01-20T05:38:51.665Z,1.83
2019-01-20T05:41:18.881Z,1.30
2019-01-20T05:43:46.063Z,1.70
2019-01-20T05:46:13.261Z,1.40
2019-01-20T05:48:40.490Z,1.43
2019-01-20T05:51:07.671Z,1.30
2019-01-20T05:53:34.929Z,1.10
2019-01-20T05:56:02.203Z,1.50
2019-01-20T05:58:29.328Z,1.30
2019-01-20T06:00:56.571Z,1.33
2019-01-20T06:03:23.726Z,1.40
2019-01-20T06:05:50.942Z,1.23
2019-01-20T06:08:18.118Z,1.20
2019-01-20T06:10:45.302Z,1.23
2019-01-20T06:13:12.518Z,1.37
2019-01-20T06:15:39.746Z,1.30
2019-01-20T06:18:07.006Z,1.00
2019-01-20T06:20:34.190Z,1.30
2019-01-20T06:23:01.374Z,1.17
2019-01-20T06:25:28.566Z,1.23
2019-01-20T06:27:55.725Z,1.10
2019-01-20T06:30:31.018Z,1.33
2019-01-20T06:32:58.182Z,1.37
2019-01-20T06:35:25.334Z,1.27
2019-01-20T06:37:52.497Z,1.33
2019-01-20T06:40:19.711Z,1.50
2019-01-20T06:42:46.885Z,1.50
2019-01-20T06:45:14.142Z,1.60
2019-01-20T06:47:41.346Z,1.40
2019-01-20T06:50:10.343Z,1.47
2019-01-20T06:52:37.549Z,1.20
2019-01-20T06:55:05.066Z,1.33
2019-01-20T06:57:32.246Z,1.43
2019-01-20T06:59:59.413Z,1.13
2019-01-20T07:02:26.606Z,1.70
2019-01-20T07:04:53.774Z,1.20
2019-01-20T07:07:21.143Z,1.30
2019-01-20T07:09:48.296Z,1.30
2019-01-20T07:12:15.457Z,1.30
2019-01-20T07:14:42.659Z,1.57
2019-01-20T07:17:09.892Z,1.40
2019-01-20T07:19:37.084Z,1.40
2019-01-20T07:22:04.242Z,1.40
2019-01-20T07:24:31.461Z,1.40
2019-01-20T07:26:58.626Z,1.47
2019-01-20T07:29:25.832Z,1.43
2019-01-20T07:31:53.023Z,1.43
2019-01-20T07:34:20.202Z,1.00
2019-01-20T07:36:47.404Z,1.27
2019-01-20T07:39:14.627Z,1.20
2019-01-20T07:41:41.804Z,1.60
2019-01-20T07:44:08.975Z,1.30
2019-01-20T07:46:36.218Z,1.40
2019-01-20T07:49:03.402Z,1.20
2019-01-20T07:51:30.603Z,1.10
2019-01-20T07:53:57.763Z,1.40
2019-01-20T07:56:24.992Z,1.40
2019-01-20T07:58:52.128Z,1.20
2019-01-20T08:01:19.372Z,1.33
2019-01-20T08:03:46.564Z,1.40
2019-01-20T08:06:13.802Z,1.30
2019-01-20T08:08:40.997Z,1.40
2019-01-20T08:11:08.256Z,1.50
2019-01-20T08:13:35.429Z,1.10
2019-01-20T08:16:02.633Z,1.20
2019-01-20T08:18:29.835Z,1.20
2019-01-20T08:20:57.018Z,1.20
2019-01-20T08:23:24.348Z,1.40
2019-01-20T08:25:51.543Z,1.30
2019-01-20T08:28:18.741Z,1.40
2019-01-20T08:30:45.971Z,1.20
2019-01-20T08:33:13.165Z,1.40
2019-01-20T08:35:40.376Z,1.30
2019-01-20T08:38:07.567Z,1.53
2019-01-20T08:40:34.775Z,1.30
2019-01-20T08:43:01.983Z,1.30
2019-01-20T08:46:09.560Z,1.27
2019-01-20T08:48:36.706Z,1.20
2019-01-20T08:51:04.625Z,1.10
2019-01-20T08:53:31.806Z,1.00
2019-01-20T08:55:59.027Z,1.43
2019-01-20T08:58:26.204Z,1.20
2019-01-20T09:00:53.383Z,1.40
2019-01-20T09:03:20.854Z,1.40
2019-01-20T09:05:48.449Z,1.40
2019-01-20T09:08:15.638Z,1.43
2019-01-20T09:10:42.801Z,1.43
2019-01-20T09:13:10.406Z,1.30
2019-01-20T09:15:37.726Z,1.40
2019-01-20T09:18:05.244Z,1.50
2019-01-20T09:20:32.457Z,1.50
2019-01-20T09:22:59.657Z,1.40
2019-01-20T09:25:26.864Z,1.20
2019-01-20T09:27:54.084Z,1.17
2019-01-20T09:30:21.306Z,1.27
2019-01-20T09:32:48.538Z,1.10
2019-01-20T09:35:15.691Z,1.40
2019-01-20T09:37:42.863Z,1.53
2019-01-20T09:40:11.083Z,1.30
2019-01-20T09:42:38.293Z,1.40
2019-01-20T09:45:08.472Z,1.40
2019-01-20T09:47:35.672Z,1.23
2019-01-20T09:50:03.193Z,1.50
2019-01-20T09:52:30.362Z,1.50
2019-01-20T09:54:57.543Z,1.67
2019-01-20T09:57:24.720Z,1.50
2019-01-20T09:59:51.897Z,1.63
2019-01-20T10:02:19.126Z,1.40
2019-01-20T10:04:46.359Z,1.20
2019-01-20T10:07:13.609Z,1.33
2019-01-20T10:09:40.792Z,1.20
2019-01-20T10:12:08.029Z,1.30
2019-01-20T10:14:35.203Z,1.30
2019-01-20T10:17:02.524Z,1.53
2019-01-20T10:19:29.710Z,1.37
2019-01-20T10:21:56.927Z,1.17
2019-01-20T10:24:24.101Z,1.30
2019-01-20T10:26:51.350Z,1.20
2019-01-20T10:29:18.545Z,1.20
2019-01-20T10:31:45.754Z,1.30
2019-01-20T10:34:12.958Z,1.50
2019-01-20T10:36:40.173Z,1.30
2019-01-20T10:39:10.770Z,1.60
2019-01-20T10:41:37.959Z,1.20
2019-01-20T10:44:05.168Z,1.50
2019-01-20T10:46:32.345Z,1.60
2019-01-20T10:48:59.549Z,1.10
2019-01-20T10:51:26.749Z,1.53
2019-01-20T10:53:53.997Z,1.40
2019-01-20T10:56:21.195Z,1.40
2019-01-20T10:58:48.357Z,1.20
2019-01-20T11:01:15.579Z,1.40
2019-01-20T11:03:42.743Z,1.13
2019-01-20T11:06:10.099Z,1.33
2019-01-20T11:08:37.283Z,1.57
2019-01-20T11:11:04.501Z,1.53
2019-01-20T11:13:31.751Z,1.50
2019-01-20T11:15:58.958Z,1.47
2019-01-20T11:18:26.114Z,1.40
2019-01-20T11:20:53.436Z,1.33
2019-01-20T11:23:22.373Z,1.30
2019-01-20T11:25:49.567Z,1.60
2019-01-20T11:28:16.782Z,1.30
2019-01-20T11:30:43.973Z,1.37
2019-01-20T11:33:11.183Z,1.33
2019-01-20T11:35:38.385Z,1.57
2019-01-20T11:38:05.736Z,1.40
2019-01-20T11:40:33.213Z,1.67
2019-01-20T11:43:00.404Z,1.43
2019-01-20T11:45:29.178Z,1.53
2019-01-20T11:47:56.362Z,1.40
2019-01-20T11:50:23.627Z,1.60
2019-01-20T11:52:50.870Z,1.40
2019-01-20T11:55:19.254Z,1.33
2019-01-20T11:57:46.456Z,1.30
2019-01-20T12:00:24.927Z,1.43
2019-01-20T12:02:52.114Z,1.60
2019-01-20T12:05:19.395Z,1.17
2019-01-20T12:07:46.642Z,1.70
2019-01-20T12:10:13.848Z,1.60
2019-01-20T12:12:42.367Z,1.60
2019-01-20T12:15:10.584Z,1.43
2019-01-20T12:17:37.813Z,1.40
2019-01-20T12:20:06.917Z,1.47
2019-01-20T12:22:34.105Z,1.30
2019-01-20T12:25:01.280Z,1.50
2019-01-20T12:27:28.458Z,1.30
2019-01-20T12:29:55.668Z,1.43
2019-01-20T12:32:22.888Z,1.30
2019-01-20T12:34:50.226Z,1.50
2019-01-20T12:37:17.395Z,1.30
2019-01-20T12:39:44.563Z,1.50
2019-01-20T12:42:11.793Z,1.40
2019-01-20T12:44:38.972Z,1.20
2019-01-20T12:47:06.165Z,1.57
2019-01-20T12:49:33.336Z,1.50
2019-01-20T12:52:00.582Z,1.43
2019-01-20T12:54:27.774Z,1.40
2019-01-20T12:56:54.980Z,1.60
2019-01-20T12:59:22.189Z,1.27
2019-01-20T13:01:49.418Z,1.70
2019-01-20T13:04:16.621Z,1.40
2019-01-20T13:06:43.786Z,1.30
2019-01-20T13:09:10.998Z,1.60
2019-01-20T13:11:38.169Z,1.43
2019-01-20T13:14:05.367Z,1.77
2019-01-20T13:16:32.534Z,1.30
2019-01-20T13:18:59.747Z,1.77
2019-01-20T13:21:26.935Z,1.50
2019-01-20T13:23:54.172Z,1.20
2019-01-20T13:26:21.387Z,1.37
2019-01-20T13:28:48.622Z,1.30
2019-01-20T13:31:15.796Z,1.37
2019-01-20T13:33:42.987Z,1.43
2019-01-20T13:36:10.220Z,1.20
2019-01-20T13:38:37.383Z,1.43
2019-01-20T13:41:12.117Z,1.47
2019-01-20T13:43:39.287Z,1.30
2019-01-20T13:46:06.428Z,1.50
2019-01-20T13:48:33.623Z,1.30
2019-01-20T13:51:00.814Z,1.00
2019-01-20T13:53:28.000Z,1.47
2019-01-20T13:56:01.217Z,1.70
2019-01-20T13:58:24.254Z,1.30
2019-01-20T14:00:51.440Z,1.50
2019-01-20T14:03:18.621Z,1.40
2019-01-20T14:05:45.789Z,1.40
2019-01-20T14:08:13.015Z,1.80
2019-01-20T14:10:40.183Z,1.20
2019-01-20T14:13:07.402Z,1.50
2019-01-20T14:15:34.538Z,1.40
2019-01-20T14:18:01.735Z,1.40
2019-01-20T14:20:28.894Z,1.50
2019-01-20T14:22:56.109Z,1.30
2019-01-20T14:25:24.189Z,1.43
2019-01-20T14:27:51.371Z,1.40
2019-01-20T14:30:21.066Z,1.20
2019-01-20T14:32:48.232Z,1.60
2019-01-20T14:35:15.443Z,1.50
2019-01-20T14:37:42.638Z,1.47
2019-01-20T14:40:11.305Z,1.57
2019-01-20T14:42:38.468Z,1.30
2019-01-20T14:45:06.550Z,1.20
2019-01-20T14:47:33.730Z,1.60
2019-01-20T14:50:00.976Z,1.30
2019-01-20T14:52:28.168Z,1.37
2019-01-20T14:54:55.339Z,1.20
2019-01-20T14:57:22.533Z,1.40
2019-01-20T14:59:49.702Z,1.50
2019-01-20T15:02:17.005Z,1.50
2019-01-20T15:04:44.194Z,1.20
2019-01-20T15:07:11.392Z,1.30
2019-01-20T15:09:38.642Z,1.30
2019-01-20T15:12:05.833Z,1.67
2019-01-20T15:14:33.050Z,1.30
2019-01-20T15:17:01.077Z,1.43
2019-01-20T15:19:28.424Z,1.30
2019-01-20T15:21:55.624Z,1.40
2019-01-20T15:24:22.921Z,1.30
2019-01-20T15:26:50.228Z,1.10
2019-01-20T15:29:17.409Z,1.50
2019-01-20T15:31:44.643Z,1.27
2019-01-20T15:34:11.870Z,1.53
2019-01-20T15:36:39.043Z,1.37
2019-01-20T15:39:07.352Z,1.40
2019-01-20T15:41:34.616Z,1.37
2019-01-20T15:44:01.790Z,1.60
2019-01-20T15:46:28.986Z,1.37
2019-01-20T15:48:56.170Z,1.33
2019-01-20T15:51:23.371Z,1.50
2019-01-20T15:53:50.545Z,1.60
2019-01-20T15:56:17.730Z,1.50
2019-01-20T15:58:45.037Z,1.60
2019-01-20T16:01:12.233Z,1.20
2019-01-20T16:03:39.438Z,1.50
2019-01-20T16:06:06.643Z,1.60
2019-01-20T16:08:33.838Z,1.33
2019-01-20T16:11:01.181Z,1.40
2019-01-20T16:13:28.351Z,1.47
2019-01-20T16:15:55.528Z,1.20
2019-01-20T16:18:22.710Z,1.57
2019-01-20T16:20:49.912Z,1.47
2019-01-20T16:23:17.137Z,1.30
2019-01-20T16:25:44.350Z,1.43
2019-01-20T16:28:11.601Z,1.50
2019-01-20T16:30:39.573Z,1.63
2019-01-20T16:33:06.752Z,1.67
2019-01-20T16:35:33.976Z,1.30
2019-01-20T16:38:02.014Z,1.40
2019-01-20T16:40:29.298Z,1.30
2019-01-20T16:42:56.502Z,1.57
2019-01-20T16:45:42.175Z,1.23
2019-01-20T16:48:07.582Z,1.40
2019-01-20T16:50:34.817Z,1.47
2019-01-20T16:53:02.006Z,1.47
2019-01-20T16:55:29.154Z,1.50
2019-01-20T16:57:56.371Z,1.50
2019-01-20T17:00:28.383Z,1.40
2019-01-20T17:02:55.655Z,1.60
2019-01-20T17:05:26.798Z,1.90
2019-01-20T17:07:51.979Z,1.50
2019-01-20T17:10:21.274Z,1.40
2019-01-20T17:12:48.462Z,1.53
2019-01-20T17:15:18.156Z,1.43
2019-01-20T17:17:45.467Z,1.50
2019-01-20T17:20:13.708Z,1.70
2019-01-20T17:22:40.925Z,1.40
2019-01-20T17:25:08.667Z,1.40
2019-01-20T17:27:35.921Z,1.40
2019-01-20T17:30:04.158Z,1.43
2019-01-20T17:32:31.333Z,1.30
2019-01-20T17:34:58.573Z,1.60
2019-01-20T17:37:25.800Z,1.30
2019-01-20T17:39:53.039Z,1.33
2019-01-20T17:42:20.232Z,1.50
2019-01-20T17:44:47.553Z,1.40
2019-01-20T17:47:14.710Z,1.47
2019-01-20T17:49:41.910Z,1.53
2019-01-20T17:52:09.163Z,1.33
2019-01-20T17:54:36.375Z,1.60
2019-01-20T17:57:03.531Z,1.30
2019-01-20T17:59:30.852Z,1.23
2019-01-20T18:01:58.128Z,1.40
2019-01-20T18:04:25.312Z,1.57
2019-01-20T18:06:52.514Z,1.80
2019-01-20T18:09:19.754Z,1.60
2019-01-20T18:11:47.089Z,1.37
2019-01-20T18:14:14.250Z,1.50
2019-01-20T18:16:41.411Z,1.30
2019-01-20T18:19:08.600Z,1.50
2019-01-20T18:21:35.757Z,1.47
2019-01-20T18:24:03.098Z,1.50
2019-01-20T18:26:30.378Z,1.60
2019-01-20T18:28:57.571Z,1.47
2019-01-20T18:31:24.784Z,1.20
2019-01-20T18:33:51.969Z,1.57
2019-01-20T18:36:19.272Z,1.40
2019-01-20T18:38:46.434Z,1.57
2019-01-20T18:41:13.604Z,1.30
2019-01-20T18:43:40.807Z,1.40
2019-01-20T18:46:08.031Z,1.60
2019-01-20T18:48:35.241Z,2.00
2019-01-20T18:51:02.383Z,1.87
2019-01-20T18:53:29.616Z,1.30
2019-01-20T18:55:56.791Z,1.90
2019-01-20T18:58:23.992Z,1.30
2019-01-20T19:00:52.163Z,1.80
2019-01-20T19:03:19.363Z,1.67
2019-01-20T19:05:46.570Z,1.80
2019-01-20T19:08:13.748Z,1.53
2019-01-20T19:10:41.014Z,1.80
2019-01-20T19:13:08.170Z,1.60
2019-01-20T19:15:35.407Z,1.50
2019-01-20T19:18:02.601Z,1.90
2019-01-20T19:20:29.817Z,1.50
2019-01-20T19:22:57.006Z,1.60
2019-01-20T19:25:24.259Z,1.80
2019-01-20T19:27:51.471Z,1.50
2019-01-20T19:30:20.817Z,1.90
2019-01-20T19:32:48.054Z,1.70
2019-01-20T19:35:15.238Z,1.90
2019-01-20T19:37:42.465Z,1.70
2019-01-20T19:40:09.878Z,1.47
2019-01-20T19:42:37.080Z,1.50
2019-01-20T19:45:05.432Z,1.67
2019-01-20T19:47:32.602Z,1.70
2019-01-20T19:49:59.804Z,1.97
2019-01-20T19:52:27.017Z,1.50
2019-01-20T19:54:54.209Z,1.60
2019-01-20T19:57:21.366Z,1.80
2019-01-20T19:59:48.577Z,1.97
2019-01-20T20:02:15.778Z,1.47
2019-01-20T20:04:42.964Z,1.67
2019-01-20T20:07:10.192Z,1.70
2019-01-20T20:09:37.486Z,1.83
2019-01-20T20:12:04.634Z,1.63
2019-01-20T20:14:31.868Z,1.87
2019-01-20T20:16:59.029Z,2.20
2019-01-20T20:19:26.266Z,2.00
2019-01-20T20:21:53.483Z,1.80
2019-01-20T20:24:25.316Z,2.13
2019-01-20T20:26:49.770Z,2.80
2019-01-20T20:29:17.253Z,1.93
2019-01-20T20:31:44.689Z,2.13
2019-01-20T20:34:11.988Z,2.70
2019-01-20T20:36:41.330Z,2.10
2019-01-20T20:39:08.918Z,1.97
2019-01-20T20:41:36.436Z,2.63
2019-01-20T20:44:03.667Z,3.10
2019-01-20T20:46:30.892Z,3.30
2019-01-20T20:48:58.095Z,4.53
2019-01-20T20:51:25.302Z,2.40
2019-01-20T20:53:52.498Z,2.40
2019-01-20T20:56:19.790Z,2.77
2019-01-20T20:58:46.976Z,3.23
2019-01-20T21:01:14.180Z,3.13
2019-01-20T21:03:41.566Z,2.77
2019-01-20T21:06:08.758Z,3.13
2019-01-20T21:08:36.054Z,3.30
2019-01-20T21:11:03.240Z,3.20
2019-01-20T21:13:30.407Z,3.30
2019-01-20T21:15:57.627Z,2.80
2019-01-20T21:18:24.835Z,2.80
2019-01-20T21:20:52.763Z,3.00
2019-01-20T21:23:19.989Z,3.10
2019-01-20T21:25:47.210Z,3.17
2019-01-20T21:28:14.445Z,2.57
2019-01-20T21:30:41.604Z,3.83
2019-01-20T21:33:08.759Z,2.50
2019-01-20T21:35:35.985Z,2.43
2019-01-20T21:38:07.001Z,2.93
2019-01-20T21:40:32.229Z,2.93
2019-01-20T21:42:59.389Z,2.90
2019-01-20T21:45:26.606Z,2.80
2019-01-20T21:47:53.819Z,3.00
2019-01-20T21:50:26.244Z,3.03
2019-01-20T21:52:53.434Z,2.70
2019-01-20T21:55:20.585Z,2.83
2019-01-20T21:57:47.878Z,3.00
2019-01-20T22:00:17.314Z,2.10
2019-01-20T22:02:44.516Z,2.70
2019-01-20T22:05:11.724Z,2.60
2019-01-20T22:07:38.887Z,2.57
2019-01-20T22:10:09.114Z,3.13
2019-01-20T22:12:36.299Z,2.40
2019-01-20T22:15:03.701Z,2.37
2019-01-20T22:17:30.854Z,2.63
2019-01-20T22:19:58.200Z,2.43
2019-01-20T22:22:25.379Z,2.57
2019-01-20T22:24:52.540Z,3.00
2019-01-20T22:27:19.727Z,2.90
2019-01-20T22:29:46.897Z,2.93
2019-01-20T22:32:14.283Z,2.30
2019-01-20T22:34:41.455Z,3.03
2019-01-20T22:37:08.679Z,2.70
2019-01-20T22:39:35.980Z,2.80
2019-01-20T22:42:03.202Z,2.60
2019-01-20T22:44:30.393Z,2.73
2019-01-20T22:47:00.228Z,2.57
2019-01-20T22:49:26.657Z,3.00
2019-01-20T22:51:53.909Z,2.73
2019-01-20T22:54:21.089Z,2.67
2019-01-20T22:56:48.266Z,3.00
2019-01-20T22:59:15.596Z,2.80
2019-01-20T23:01:42.870Z,2.83
2019-01-20T23:04:10.071Z,2.67
2019-01-20T23:06:37.259Z,2.70
2019-01-20T23:09:06.769Z,2.47
2019-01-20T23:11:34.152Z,2.43
2019-01-20T23:14:01.379Z,2.47
2019-01-20T23:16:28.557Z,2.80
2019-01-20T23:18:55.741Z,2.93
2019-01-20T23:21:22.905Z,2.90
2019-01-20T23:23:50.116Z,2.83
2019-01-20T23:26:17.322Z,2.27
2019-01-20T23:28:44.684Z,2.60
2019-01-20T23:31:11.849Z,2.73
2019-01-20T23:33:39.058Z,2.47
2019-01-20T23:36:06.275Z,2.33
2019-01-20T23:38:33.499Z,3.00
2019-01-20T23:41:01.177Z,2.90
2019-01-20T23:43:28.339Z,2.97
2019-01-20T23:45:55.485Z,2.93
2019-01-20T23:48:22.811Z,2.77
2019-01-20T23:50:49.979Z,3.30
2019-01-20T23:53:17.176Z,3.20
2019-01-20T23:55:44.377Z,3.30
2019-01-20T23:58:11.608Z,3.20
